Time;durP1;ratioP1;P1;durP2;ratioP2;P2;SDS_P1;SDS_P2;PMS_P1;PMS_P2;Temp;Humidity;BMP_temperature;BMP_pressure;BME280_temperature;BME280_humidity;BME280_pressure;Samples;Min_cycle;Max_cycle;Signal;HPM_P1;HPM_P2
2022/03/02 00:01:54;;;;;;;0.50;0.50;;;3.20;99.90;;;;;;5050848;28;20192;-77
2022/03/02 00:04:20;;;;;;;1.27;1.23;;;3.20;99.90;;;;;;5051467;28;20610;-76
2022/03/02 00:06:46;;;;;;;3.33;2.97;;;3.20;99.90;;;;;;5050980;28;20187;-76
2022/03/02 00:09:11;;;;;;;1.03;1.03;;;3.20;99.90;;;;;;5050745;28;20191;-75
2022/03/02 00:11:38;;;;;;;1.97;1.87;;;3.20;99.90;;;;;;5049340;28;20180;-75
2022/03/02 00:14:05;;;;;;;1.83;1.00;;;3.10;99.90;;;;;;5050007;28;20196;-76
2022/03/02 00:16:31;;;;;;;0.10;0.10;;;3.00;99.90;;;;;;5051044;28;20222;-76
2022/03/02 00:18:57;;;;;;;0.40;0.40;;;3.00;99.90;;;;;;5053329;28;20186;-76
2022/03/02 00:21:24;;;;;;;3.50;3.20;;;3.00;99.90;;;;;;5054150;28;20173;-74
2022/03/02 00:23:49;;;;;;;2.00;1.90;;;2.90;99.90;;;;;;5053073;28;20741;-75
2022/03/02 00:26:15;;;;;;;1.23;1.23;;;2.90;99.90;;;;;;5053282;28;20328;-76
2022/03/02 00:28:41;;;;;;;0.67;0.67;;;2.90;99.90;;;;;;5053665;28;20225;-75
2022/03/02 00:31:07;;;;;;;1.33;1.30;;;2.90;99.90;;;;;;5054206;28;20210;-76
2022/03/02 00:33:33;;;;;;;1.67;0.77;;;2.90;99.90;;;;;;5054254;28;20208;-77
2022/03/02 00:35:58;;;;;;;4.63;3.67;;;2.90;99.90;;;;;;5052654;28;20200;-76
2022/03/02 00:38:24;;;;;;;1.83;1.73;;;2.80;99.90;;;;;;5053788;28;20182;-77
2022/03/02 00:40:50;;;;;;;2.10;2.00;;;2.80;99.90;;;;;;5054201;28;20215;-75
2022/03/02 00:43:16;;;;;;;0.50;0.50;;;2.80;99.90;;;;;;5053640;28;20200;-76
2022/03/02 00:45:42;;;;;;;2.63;2.53;;;2.80;99.90;;;;;;5054046;28;20188;-76
2022/03/02 00:48:08;;;;;;;2.07;1.40;;;2.80;99.90;;;;;;5053927;28;20181;-77
2022/03/02 00:50:35;;;;;;;1.33;1.23;;;2.70;99.90;;;;;;5053734;28;20677;-76
2022/03/02 00:53:02;;;;;;;0.80;0.80;;;2.70;99.90;;;;;;5053414;28;20202;-76
2022/03/02 00:55:28;;;;;;;1.43;1.23;;;2.70;99.90;;;;;;5053505;28;20203;-76
2022/03/02 00:57:53;;;;;;;2.57;1.70;;;2.70;99.90;;;;;;5053634;28;20227;-76
2022/03/02 01:00:19;;;;;;;5.43;1.20;;;2.60;99.90;;;;;;5053581;28;20246;-77
2022/03/02 01:02:48;;;;;;;3.50;2.87;;;2.50;99.90;;;;;;5053416;28;20204;-77
2022/03/02 01:05:13;;;;;;;10.40;1.40;;;2.50;99.90;;;;;;5053544;28;20226;-77
2022/03/02 01:07:39;;;;;;;1.57;1.47;;;2.50;99.90;;;;;;5053725;28;20672;-78
2022/03/02 01:10:07;;;;;;;1.17;1.10;;;2.50;99.90;;;;;;5053525;28;20199;-77
2022/03/02 01:12:33;;;;;;;1.23;1.13;;;2.50;99.90;;;;;;5052030;28;20288;-77
2022/03/02 01:14:58;;;;;;;1.77;1.67;;;2.50;99.90;;;;;;5053339;28;20288;-76
2022/03/02 01:17:24;;;;;;;1.20;1.20;;;2.50;99.90;;;;;;5053348;28;20605;-76
2022/03/02 01:19:50;;;;;;;0.60;0.60;;;2.50;99.90;;;;;;5051930;28;20206;-77
2022/03/02 01:22:16;;;;;;;1.60;1.30;;;2.40;99.90;;;;;;5067855;22;20213;-73
2022/03/02 01:24:42;;;;;;;4.40;1.50;;;2.40;99.90;;;;;;5034213;28;20204;-74
2022/03/02 01:27:08;;;;;;;1.10;1.10;;;2.30;99.90;;;;;;5053174;28;20180;-76
2022/03/02 01:29:34;;;;;;;3.20;2.10;;;2.20;99.90;;;;;;5052010;28;20179;-75
2022/03/02 01:32:03;;;;;;;2.00;1.90;;;2.10;99.90;;;;;;5052805;28;20237;-75
2022/03/02 01:34:29;;;;;;;1.70;1.60;;;2.00;99.90;;;;;;5033303;28;20174;-75
2022/03/02 01:36:55;;;;;;;3.60;3.30;;;1.90;99.90;;;;;;5032792;28;20763;-75
2022/03/02 01:39:20;;;;;;;0.70;0.70;;;1.80;99.90;;;;;;5033003;28;20171;-76
2022/03/02 01:41:46;;;;;;;1.07;1.07;;;1.70;99.90;;;;;;5032525;28;20219;-77
2022/03/02 01:44:11;;;;;;;0.70;0.70;;;1.70;99.90;;;;;;5032966;28;20337;-75
2022/03/02 01:46:38;;;;;;;0.50;0.50;;;1.60;99.90;;;;;;5033030;28;20182;-77
2022/03/02 01:49:04;;;;;;;0.57;0.57;;;1.50;99.90;;;;;;5015142;28;20188;-76
2022/03/02 01:51:30;;;;;;;1.57;1.33;;;1.50;99.90;;;;;;5032353;28;20186;-77
2022/03/02 01:53:56;;;;;;;0.20;0.20;;;1.60;99.90;;;;;;5032643;28;20201;-76
2022/03/02 01:56:21;;;;;;;2.43;1.57;;;1.60;99.90;;;;;;5032771;28;20209;-77
2022/03/02 01:58:47;;;;;;;0.37;0.37;;;1.60;99.90;;;;;;5032599;28;20566;-77
2022/03/02 02:01:13;;;;;;;0.83;0.83;;;1.60;99.90;;;;;;5032738;28;20269;-76
2022/03/02 02:03:39;;;;;;;2.77;0.97;;;1.60;99.90;;;;;;5014418;28;20290;-77
2022/03/02 02:06:05;;;;;;;1.50;0.63;;;1.50;99.90;;;;;;5014673;28;20748;-77
2022/03/02 02:08:31;;;;;;;0.53;0.53;;;1.60;99.90;;;;;;5011248;28;20277;-76
2022/03/02 02:10:59;;;;;;;1.67;1.10;;;1.50;99.90;;;;;;5023590;28;20186;-75
2022/03/02 02:13:26;;;;;;;4.27;0.93;;;1.50;99.90;;;;;;5031745;28;20231;-76
2022/03/02 02:15:56;;;;;;;0.67;0.67;;;1.40;99.90;;;;;;5032196;28;20222;-77
2022/03/02 02:18:21;;;;;;;3.10;1.87;;;1.30;99.90;;;;;;5013665;28;20278;-75
2022/03/02 02:20:47;;;;;;;1.27;0.97;;;1.30;99.90;;;;;;5032167;28;20739;-77
2022/03/02 02:23:13;;;;;;;1.27;1.13;;;1.10;99.90;;;;;;5031700;28;20228;-77
2022/03/02 02:25:39;;;;;;;0.20;0.20;;;1.10;99.90;;;;;;5032126;28;20557;-77
2022/03/02 02:28:06;;;;;;;10.17;2.13;;;1.00;99.90;;;;;;5032106;28;20595;-77
2022/03/02 02:30:31;;;;;;;0.50;0.50;;;0.90;99.90;;;;;;5032141;28;20213;-77
2022/03/02 02:32:57;;;;;;;2.20;0.70;;;1.00;99.90;;;;;;5032155;28;20202;-76
2022/03/02 02:35:23;;;;;;;1.43;1.33;;;1.00;99.90;;;;;;5014169;28;20283;-75
2022/03/02 02:37:48;;;;;;;1.80;1.73;;;1.00;99.90;;;;;;5031995;28;20612;-77
2022/03/02 02:40:17;;;;;;;4.80;2.80;;;1.00;99.90;;;;;;5031762;28;20204;-76
2022/03/02 02:42:45;;;;;;;0.87;0.87;;;0.90;99.90;;;;;;5031334;28;20216;-77
2022/03/02 02:45:17;;;;;;;1.50;1.50;;;0.80;99.90;;;;;;5031807;28;20215;-78
2022/03/02 02:47:43;;;;;;;0.80;0.80;;;0.80;99.90;;;;;;5031679;28;20264;-77
2022/03/02 02:50:20;;;;;;;0.60;0.60;;;0.80;99.90;;;;;;5031971;28;20201;-77
2022/03/02 02:52:46;;;;;;;3.07;2.90;;;0.70;99.90;;;;;;5031262;28;20690;-76
2022/03/02 02:55:13;;;;;;;2.67;2.23;;;0.80;99.90;;;;;;5032181;28;20228;-77
2022/03/02 02:57:39;;;;;;;0.77;0.77;;;0.80;99.90;;;;;;5032158;28;20178;-77
2022/03/02 03:00:08;;;;;;;3.40;3.17;;;0.80;99.90;;;;;;5031952;28;20180;-77
2022/03/02 03:02:34;;;;;;;1.73;1.60;;;0.80;99.90;;;;;;5031515;28;20667;-77
2022/03/02 03:04:59;;;;;;;1.93;1.83;;;0.90;99.90;;;;;;5031765;28;20184;-78
2022/03/02 03:07:25;;;;;;;0.83;0.70;;;0.90;99.90;;;;;;5031935;28;20185;-77
2022/03/02 03:09:51;;;;;;;3.30;2.63;;;0.90;99.90;;;;;;5031766;28;20266;-77
2022/03/02 03:12:17;;;;;;;0.57;0.57;;;0.90;99.90;;;;;;5014110;28;20174;-78
2022/03/02 03:14:43;;;;;;;2.27;1.13;;;0.90;99.90;;;;;;5031532;28;20192;-78
2022/03/02 03:17:08;;;;;;;0.63;0.57;;;0.90;99.90;;;;;;5031854;28;20231;-78
2022/03/02 03:19:34;;;;;;;0.30;0.30;;;1.00;99.90;;;;;;5013048;28;20182;-77
2022/03/02 03:22:06;;;;;;;0.33;0.33;;;1.00;99.90;;;;;;5031536;28;20561;-77
2022/03/02 03:24:33;;;;;;;4.23;1.07;;;1.00;99.90;;;;;;5031432;28;20726;-77
2022/03/02 03:26:59;;;;;;;0.50;0.50;;;1.10;99.90;;;;;;5031449;28;20191;-78
2022/03/02 03:29:24;;;;;;;1.17;1.17;;;1.10;99.90;;;;;;5031138;28;20187;-77
2022/03/02 03:31:50;;;;;;;3.00;2.80;;;1.20;99.90;;;;;;5031288;28;20196;-77
2022/03/02 03:34:15;;;;;;;1.13;1.13;;;1.20;99.90;;;;;;5013469;28;20215;-78
2022/03/02 03:36:41;;;;;;;0.50;0.50;;;1.30;99.90;;;;;;5031234;28;20273;-77
2022/03/02 03:39:08;;;;;;;0.40;0.40;;;1.30;99.90;;;;;;5031268;28;20655;-77
2022/03/02 03:41:34;;;;;;;0.57;0.50;;;1.20;99.90;;;;;;5009804;28;20252;-77
2022/03/02 03:44:00;;;;;;;0.77;0.77;;;1.20;99.90;;;;;;5027968;28;20203;-77
2022/03/02 03:46:25;;;;;;;2.40;2.30;;;1.20;99.90;;;;;;5031294;28;20188;-77
2022/03/02 03:48:51;;;;;;;1.33;1.33;;;1.30;99.90;;;;;;5030894;28;20235;-77
2022/03/02 03:51:16;;;;;;;2.70;1.73;;;1.30;99.90;;;;;;5031100;28;20213;-74
2022/03/02 03:53:42;;;;;;;3.50;2.13;;;1.30;99.90;;;;;;5032807;28;20302;-75
2022/03/02 03:56:08;;;;;;;1.83;1.83;;;1.30;99.90;;;;;;5035098;28;20639;-76
2022/03/02 03:58:33;;;;;;;0.80;0.80;;;1.30;99.90;;;;;;5034640;28;20184;-77
2022/03/02 04:00:59;;;;;;;0.77;0.77;;;1.40;99.90;;;;;;5034966;28;20189;-76
2022/03/02 04:03:25;;;;;;;0.23;0.23;;;1.40;99.90;;;;;;5034695;28;20205;-76
2022/03/02 04:05:50;;;;;;;1.33;1.23;;;1.50;99.90;;;;;;5034911;28;20195;-76
2022/03/02 04:08:16;;;;;;;0.93;0.93;;;1.50;99.90;;;;;;5035396;28;20275;-76
2022/03/02 04:10:42;;;;;;;0.43;0.43;;;1.50;99.90;;;;;;5017567;28;20652;-76
2022/03/02 04:13:08;;;;;;;6.63;1.40;;;1.50;99.90;;;;;;5035948;28;20290;-76
2022/03/02 04:15:34;;;;;;;5.40;0.93;;;1.60;99.90;;;;;;5036565;28;20208;-77
2022/03/02 04:17:59;;;;;;;2.53;1.70;;;1.70;99.90;;;;;;5036119;28;20196;-77
2022/03/02 04:20:25;;;;;;;0.30;0.30;;;1.70;99.90;;;;;;5036276;28;20264;-76
2022/03/02 04:22:51;;;;;;;2.73;1.60;;;1.70;99.90;;;;;;5034620;28;20307;-77
2022/03/02 04:25:16;;;;;;;0.83;0.83;;;1.70;99.90;;;;;;5034560;28;20224;-78
2022/03/02 04:27:42;;;;;;;0.20;0.20;;;1.70;99.90;;;;;;5016793;28;20215;-77
2022/03/02 04:30:09;;;;;;;2.73;2.27;;;1.80;99.90;;;;;;5034581;28;20214;-76
2022/03/02 04:32:37;;;;;;;1.00;1.00;;;1.80;99.90;;;;;;5015408;28;20236;-76
2022/03/02 04:35:03;;;;;;;1.60;1.50;;;1.70;99.90;;;;;;5016426;28;20254;-77
2022/03/02 04:37:29;;;;;;;0.20;0.20;;;1.70;99.90;;;;;;5034180;28;20175;-76
2022/03/02 04:39:54;;;;;;;0.80;0.80;;;1.70;99.90;;;;;;5034021;28;20198;-76
2022/03/02 04:42:20;;;;;;;4.03;1.23;;;1.80;99.90;;;;;;5033486;28;20192;-77
2022/03/02 04:44:46;;;;;;;0.50;0.50;;;1.70;99.90;;;;;;5016534;28;20237;-76
2022/03/02 04:47:11;;;;;;;0.60;0.60;;;1.80;99.90;;;;;;5034260;28;20185;-76
2022/03/02 04:49:37;;;;;;;0.50;0.50;;;1.90;99.90;;;;;;5034008;28;20185;-77
2022/03/02 04:52:02;;;;;;;1.57;1.50;;;1.90;99.90;;;;;;5033524;28;20191;-76
2022/03/02 04:57:12;;;;;;;0.43;0.43;;;1.80;99.90;;;;;;5034050;28;20189;-76
2022/03/02 04:59:38;;;;;;;1.13;0.77;;;1.80;99.90;;;;;;5033877;28;20182;-76
2022/03/02 05:02:04;;;;;;;0.60;0.60;;;1.70;99.90;;;;;;5033267;28;20716;-75
2022/03/02 05:04:29;;;;;;;2.40;2.17;;;1.70;99.90;;;;;;5015684;28;20256;-76
2022/03/02 05:06:55;;;;;;;5.20;1.60;;;1.70;99.90;;;;;;5033635;28;20274;-76
2022/03/02 05:09:21;;;;;;;1.40;1.40;;;1.60;99.90;;;;;;5036654;28;20211;-76
2022/03/02 05:11:46;;;;;;;0.70;0.70;;;1.60;99.90;;;;;;5034028;28;20194;-76
2022/03/02 05:14:12;;;;;;;3.20;2.37;;;1.60;99.90;;;;;;5033887;28;20207;-75
2022/03/02 05:16:37;;;;;;;1.10;1.10;;;1.70;99.90;;;;;;5013757;28;20477;-76
2022/03/02 05:19:03;;;;;;;2.23;2.10;;;1.70;99.90;;;;;;5027096;28;20179;-75
2022/03/02 05:21:28;;;;;;;0.70;0.70;;;1.70;99.90;;;;;;5034198;28;20183;-78
2022/03/02 05:23:54;;;;;;;0.63;0.63;;;1.80;99.90;;;;;;5015366;28;20228;-77
2022/03/02 05:26:19;;;;;;;1.37;1.27;;;1.80;99.90;;;;;;5033300;28;20216;-76
2022/03/02 05:28:45;;;;;;;2.93;1.10;;;1.80;99.90;;;;;;5034211;28;20187;-76
2022/03/02 05:31:10;;;;;;;1.00;0.97;;;1.80;99.90;;;;;;5013129;28;20188;-77
2022/03/02 05:33:36;;;;;;;1.60;1.60;;;1.80;99.90;;;;;;5023288;28;20209;-76
2022/03/02 05:36:01;;;;;;;1.50;1.43;;;1.80;99.90;;;;;;5034153;28;20671;-76
2022/03/02 05:38:27;;;;;;;1.07;1.07;;;1.90;99.90;;;;;;5017668;28;20186;-75
2022/03/02 05:40:52;;;;;;;0.53;0.53;;;1.90;99.90;;;;;;5036326;28;20267;-76
2022/03/02 05:43:18;;;;;;;2.43;1.23;;;1.90;99.90;;;;;;5032913;28;20203;-76
2022/03/02 05:45:44;;;;;;;1.23;1.23;;;1.90;99.90;;;;;;5033609;28;20185;-75
2022/03/02 05:48:09;;;;;;;0.40;0.40;;;1.90;99.90;;;;;;5033934;28;20197;-74
2022/03/02 05:50:35;;;;;;;1.73;1.63;;;1.90;99.90;;;;;;5033696;28;20244;-75
2022/03/02 05:53:00;;;;;;;2.23;2.10;;;1.90;99.90;;;;;;5027849;28;20202;-76
2022/03/02 05:55:26;;;;;;;1.70;1.37;;;1.90;99.90;;;;;;5026322;28;20661;-76
2022/03/02 05:57:52;;;;;;;1.53;1.47;;;1.80;99.90;;;;;;5038266;28;20674;-74
2022/03/02 06:00:17;;;;;;;1.50;1.27;;;1.80;99.90;;;;;;5047151;28;20245;-74
2022/03/02 06:02:43;;;;;;;2.13;1.80;;;1.80;99.90;;;;;;5019075;28;20212;-73
2022/03/02 06:05:09;;;;;;;0.97;0.97;;;1.80;99.90;;;;;;5036690;28;20181;-76
2022/03/02 06:07:35;;;;;;;1.80;1.70;;;1.80;99.90;;;;;;5036215;28;20715;-76
2022/03/02 06:10:01;;;;;;;2.10;2.00;;;1.70;99.90;;;;;;5034263;28;20246;-76
2022/03/02 06:12:27;;;;;;;1.60;1.50;;;1.70;99.90;;;;;;5034462;28;20218;-76
2022/03/02 06:14:53;;;;;;;2.80;2.60;;;1.70;99.90;;;;;;5015707;28;20200;-77
2022/03/02 06:17:19;;;;;;;1.07;1.03;;;1.70;99.90;;;;;;5023683;28;20190;-76
2022/03/02 06:19:45;;;;;;;2.97;1.27;;;1.70;99.90;;;;;;5032158;28;20195;-76
2022/03/02 06:22:11;;;;;;;2.43;2.20;;;1.70;99.90;;;;;;5013570;28;20214;-77
2022/03/02 06:24:37;;;;;;;1.80;1.70;;;1.80;99.90;;;;;;5030258;28;20204;-75
2022/03/02 06:27:03;;;;;;;0.67;0.57;;;1.80;99.90;;;;;;5032856;28;20201;-75
2022/03/02 06:29:28;;;;;;;0.80;0.80;;;1.80;99.90;;;;;;5034111;28;20188;-73
2022/03/02 06:31:54;;;;;;;2.63;0.70;;;1.80;99.90;;;;;;5036927;28;20204;-73
2022/03/02 06:34:19;;;;;;;0.40;0.40;;;1.90;99.90;;;;;;5015727;28;20208;-74
2022/03/02 06:36:49;;;;;;;1.27;1.27;;;1.90;99.90;;;;;;5015078;28;20293;-75
2022/03/02 06:39:16;;;;;;;3.97;1.90;;;1.90;99.90;;;;;;5032378;28;20178;-75
2022/03/02 06:41:56;;;;;;;0.50;0.50;;;1.90;99.90;;;;;;5026885;28;20735;-75
2022/03/02 06:44:32;;;;;;;4.63;3.43;;;2.00;99.90;;;;;;5013754;28;20209;-74
2022/03/02 06:47:09;;;;;;;1.77;1.63;;;2.00;99.90;;;;;;5032454;28;20286;-74
2022/03/02 06:49:45;;;;;;;0.30;0.30;;;2.00;99.90;;;;;;5032178;28;20174;-74
2022/03/02 06:52:12;;;;;;;4.33;2.97;;;2.00;99.90;;;;;;5031650;28;20185;-75
2022/03/02 06:54:42;;;;;;;0.10;0.10;;;2.00;99.90;;;;;;5031685;28;20239;-74
2022/03/02 06:57:14;;;;;;;6.67;2.43;;;2.00;99.90;;;;;;5031654;28;20240;-75
2022/03/02 06:59:42;;;;;;;1.60;1.57;;;2.00;99.90;;;;;;5031718;28;20718;-76
2022/03/02 07:02:10;;;;;;;0.37;0.37;;;2.00;99.90;;;;;;5019666;28;20201;-76
2022/03/02 07:04:40;;;;;;;0.90;0.60;;;2.10;99.90;;;;;;5033801;28;20175;-75
2022/03/02 07:07:07;;;;;;;0.70;0.70;;;2.10;99.90;;;;;;5034091;28;20174;-76
2022/03/02 07:09:33;;;;;;;0.73;0.73;;;2.10;99.90;;;;;;5016035;28;20707;-76
2022/03/02 07:12:05;;;;;;;3.17;3.07;;;2.10;99.90;;;;;;5014838;28;20183;-75
2022/03/02 07:14:32;;;;;;;3.53;3.33;;;2.20;99.90;;;;;;5014016;28;20209;-76
2022/03/02 07:17:00;;;;;;;0.57;0.57;;;2.30;99.90;;;;;;5012112;28;20216;-75
2022/03/02 07:19:26;;;;;;;0.40;0.40;;;2.30;99.90;;;;;;5027907;28;20180;-76
2022/03/02 07:21:54;;;;;;;4.97;3.40;;;2.30;99.90;;;;;;5031411;28;20731;-76
2022/03/02 07:24:25;;;;;;;0.70;0.70;;;2.30;99.90;;;;;;5062908;22;20241;-76
2022/03/02 07:26:53;;;;;;;0.77;0.77;;;2.30;99.90;;;;;;5070258;28;20203;-77
2022/03/02 07:29:20;;;;;;;0.60;0.60;;;2.30;99.90;;;;;;5056503;28;20186;-77
2022/03/02 07:31:46;;;;;;;0.83;0.83;;;2.40;99.90;;;;;;5074191;28;20265;-77
2022/03/02 07:34:14;;;;;;;2.57;2.37;;;2.50;99.90;;;;;;5082274;28;20276;-76
2022/03/02 07:36:41;;;;;;;0.77;0.77;;;2.50;99.90;;;;;;5081932;28;20207;-77
2022/03/02 07:39:08;;;;;;;0.30;0.30;;;2.60;99.90;;;;;;5079076;28;20269;-77
2022/03/02 07:41:34;;;;;;;9.37;3.23;;;2.70;99.90;;;;;;5075015;28;20180;-77
2022/03/02 07:44:00;;;;;;;1.63;1.53;;;2.80;99.90;;;;;;5061004;28;20203;-77
2022/03/02 07:46:28;;;;;;;0.30;0.30;;;3.00;99.90;;;;;;5084529;28;20183;-77
2022/03/02 07:48:55;;;;;;;0.27;0.27;;;3.10;99.90;;;;;;5088835;28;20618;-76
2022/03/02 07:51:22;;;;;;;2.13;2.00;;;3.10;99.90;;;;;;5080047;28;20642;-77
2022/03/02 07:53:50;;;;;;;2.70;1.80;;;3.20;99.90;;;;;;5087391;28;20202;-78
2022/03/02 07:56:17;;;;;;;2.03;2.00;;;3.30;99.90;;;;;;5075729;28;20241;-77
2022/03/02 07:58:43;;;;;;;0.50;0.50;;;3.30;99.90;;;;;;5081620;28;20202;-77
2022/03/02 08:01:17;;;;;;;1.40;1.40;;;3.40;99.90;;;;;;5088195;28;20556;-77
2022/03/02 08:03:44;;;;;;;1.00;1.00;;;3.60;99.90;;;;;;5077258;28;20230;-77
2022/03/02 08:06:10;;;;;;;0.97;0.77;;;3.70;99.90;;;;;;5079323;28;20184;-77
2022/03/02 08:08:37;;;;;;;0.77;0.77;;;3.80;99.90;;;;;;5063342;28;20240;-77
2022/03/02 08:11:06;;;;;;;4.53;1.33;;;4.10;99.90;;;;;;5060041;28;20176;-76
2022/03/02 08:13:34;;;;;;;0.75;0.75;;;4.20;99.90;;;;;;5084085;28;20410;-77
2022/03/02 08:16:00;;;;;;;1.10;1.10;;;4.30;99.90;;;;;;5087824;28;20187;-76
2022/03/02 08:18:27;;;;;;;2.50;1.20;;;4.50;99.90;;;;;;5074511;28;20183;-77
2022/03/02 08:20:54;;;;;;;2.57;2.37;;;4.70;99.90;;;;;;5074151;28;20180;-77
2022/03/02 08:23:21;;;;;;;2.40;2.20;;;4.90;99.90;;;;;;5077438;28;20613;-76
2022/03/02 08:25:50;;;;;;;1.80;1.70;;;5.10;99.90;;;;;;5057541;28;20187;-77
2022/03/02 08:28:19;;;;;;;1.40;1.37;;;5.10;99.90;;;;;;5083767;28;20238;-76
2022/03/02 08:30:48;;;;;;;0.83;0.83;;;5.30;99.90;;;;;;5058748;28;20187;-76
2022/03/02 08:33:18;;;;;;;0.33;0.33;;;5.50;99.90;;;;;;5084541;28;20200;-77
2022/03/02 08:35:45;;;;;;;0.97;0.97;;;5.60;99.90;;;;;;5076125;28;20287;-77
2022/03/02 08:38:10;;;;;;;1.50;1.00;;;5.60;99.90;;;;;;5060645;28;20179;-77
2022/03/02 08:40:37;;;;;;;5.73;1.90;;;5.60;99.90;;;;;;5079862;28;20168;-77
2022/03/02 08:43:05;;;;;;;0.47;0.47;;;5.80;99.90;;;;;;5084318;28;20216;-77
2022/03/02 08:45:31;;;;;;;4.17;2.27;;;5.80;99.90;;;;;;5079830;28;20177;-77
2022/03/02 08:48:01;;;;;;;2.73;2.13;;;5.80;99.90;;;;;;5087611;28;20172;-75
2022/03/02 08:50:27;;;;;;;0.53;0.53;;;5.90;99.90;;;;;;5084560;28;20194;-76
2022/03/02 08:52:56;;;;;;;2.80;2.70;;;6.10;99.90;;;;;;5078958;28;20269;-76
2022/03/02 08:55:23;;;;;;;0.73;0.73;;;6.20;99.90;;;;;;5066423;28;20200;-77
2022/03/02 08:57:51;;;;;;;0.90;0.90;;;6.30;99.90;;;;;;5075231;28;20165;-77
2022/03/02 09:00:16;;;;;;;0.77;0.77;;;6.40;99.90;;;;;;5076604;28;20566;-78
2022/03/02 09:02:42;;;;;;;0.17;0.17;;;6.50;99.90;;;;;;5058053;28;20187;-77
2022/03/02 09:05:08;;;;;;;1.20;1.10;;;6.70;99.90;;;;;;5076359;28;20172;-77
2022/03/02 09:07:35;;;;;;;3.07;1.07;;;6.80;99.90;;;;;;5054947;28;20172;-77
2022/03/02 09:10:02;;;;;;;1.60;1.50;;;6.90;99.90;;;;;;5082460;28;20517;-77
2022/03/02 09:12:27;;;;;;;3.17;1.80;;;6.90;99.90;;;;;;5073169;28;20172;-77
2022/03/02 09:14:55;;;;;;;3.83;3.03;;;6.90;99.90;;;;;;5080700;28;20267;-76
2022/03/02 09:17:24;;;;;;;4.40;3.57;;;7.10;99.90;;;;;;5078742;28;20568;-76
2022/03/02 09:19:50;;;;;;;1.70;1.60;;;7.10;99.90;;;;;;5085859;28;20540;-78
2022/03/02 09:22:17;;;;;;;1.97;1.87;;;7.20;99.90;;;;;;5058104;28;20180;-77
2022/03/02 09:24:44;;;;;;;1.57;1.47;;;7.20;99.90;;;;;;5084094;28;20235;-75
2022/03/02 09:27:11;;;;;;;2.40;2.20;;;7.30;99.90;;;;;;5072698;28;20194;-75
2022/03/02 09:29:42;;;;;;;0.50;0.50;;;7.30;99.90;;;;;;5072915;28;20172;-75
2022/03/02 09:32:09;;;;;;;3.90;2.23;;;7.50;99.90;;;;;;5066137;28;20573;-76
2022/03/02 09:34:40;;;;;;;1.70;1.60;;;7.60;99.90;;;;;;5077690;28;20287;-77
2022/03/02 09:37:09;;;;;;;7.53;3.73;;;7.70;99.90;;;;;;5078534;28;20196;-77
2022/03/02 09:39:35;;;;;;;0.93;0.93;;;7.70;99.90;;;;;;5085994;28;20531;-77
2022/03/02 09:42:04;;;;;;;2.00;1.10;;;7.80;99.90;;;;;;5054660;28;20259;-76
2022/03/02 09:44:35;;;;;;;1.57;1.23;;;7.90;99.90;;;;;;5081295;28;20194;-77
2022/03/02 09:47:01;;;;;;;4.57;1.93;;;7.90;99.90;;;;;;5074600;28;20667;-75
2022/03/02 09:49:30;;;;;;;1.57;1.47;;;7.90;99.90;;;;;;5086010;28;20183;-77
2022/03/02 09:52:09;;;;;;;3.27;2.53;;;7.90;99.90;;;;;;5078773;28;20180;-77
2022/03/02 09:54:37;;;;;;;1.93;1.83;;;8.10;99.90;;;;;;5068302;28;20604;-77
2022/03/02 09:57:04;;;;;;;0.50;0.50;;;8.20;99.90;;;;;;5074191;28;20586;-77
2022/03/02 09:59:35;;;;;;;2.83;2.20;;;8.30;99.90;;;;;;5061786;28;20172;-77
2022/03/02 10:02:03;;;;;;;5.07;3.53;;;8.50;99.90;;;;;;5057915;28;20167;-77
2022/03/02 10:04:29;;;;;;;1.07;0.67;;;8.60;99.90;;;;;;5073345;28;20208;-77
2022/03/02 10:07:26;;;;;;;2.50;2.37;;;8.50;99.90;;;;;;5083624;28;20563;-77
2022/03/02 10:09:47;;;;;;;7.13;2.00;;;8.60;99.90;;;;;;5085148;28;20264;-77
2022/03/02 10:12:21;;;;;;;1.33;0.97;;;8.80;99.90;;;;;;5146584;27;21068;-76
2022/03/02 10:14:49;;;;;;;1.87;1.70;;;8.90;99.90;;;;;;5118282;27;20195;-77
2022/03/02 10:17:20;;;;;;;2.40;1.37;;;9.00;99.90;;;;;;5116365;28;20183;-77
2022/03/02 10:19:53;;;;;;;2.17;1.97;;;9.00;99.90;;;;;;5124593;28;20231;-76
2022/03/02 10:22:39;;;;;;;0.90;0.87;;;9.10;99.90;;;;;;5128104;28;20190;-77
2022/03/02 10:25:16;;;;;;;1.23;1.13;;;9.20;99.90;;;;;;5114166;28;20284;-77
2022/03/02 10:28:04;;;;;;;3.50;3.27;;;9.30;99.90;;;;;;5120187;28;20219;-77
2022/03/02 10:30:40;;;;;;;11.53;3.20;;;9.50;99.90;;;;;;5123435;28;20277;-77
2022/03/02 10:33:25;;;;;;;1.43;1.33;;;9.70;99.90;;;;;;5112000;27;20194;-77
2022/03/02 10:36:01;;;;;;;4.37;1.33;;;10.10;99.90;;;;;;5126828;27;20797;-77
2022/03/02 10:38:46;;;;;;;2.40;2.30;;;10.20;99.90;;;;;;5116657;28;20175;-77
2022/03/02 10:41:12;;;;;;;3.77;1.83;;;10.30;99.90;;;;;;5122915;28;20199;-75
2022/03/02 10:43:51;;;;;;;3.97;2.43;;;10.60;99.90;;;;;;5126782;28;20252;-76
2022/03/02 10:46:21;;;;;;;2.27;2.17;;;10.90;99.90;;;;;;5116151;28;20175;-75
2022/03/02 10:49:04;;;;;;;1.80;1.60;;;10.90;99.90;;;;;;5122604;28;20179;-76
2022/03/02 10:51:32;;;;;;;2.47;2.20;;;11.30;99.90;;;;;;5116158;28;20204;-76
2022/03/02 10:54:01;;;;;;;1.90;1.50;;;11.50;99.90;;;;;;5114470;27;20274;-76
2022/03/02 10:56:28;;;;;;;0.10;0.10;;;11.80;99.90;;;;;;5124122;28;20253;-76
2022/03/02 10:58:55;;;;;;;0.70;0.70;;;11.90;99.90;;;;;;5120341;28;20183;-75
2022/03/02 11:01:21;;;;;;;0.80;0.80;;;12.10;99.90;;;;;;5115743;28;20265;-76
2022/03/02 11:03:47;;;;;;;1.13;0.80;;;12.80;99.90;;;;;;5123847;27;20206;-75
2022/03/02 11:06:14;;;;;;;1.63;1.53;;;12.70;99.90;;;;;;5118328;28;20186;-76
2022/03/02 11:08:42;;;;;;;1.83;1.73;;;12.80;99.90;;;;;;5126657;28;20257;-75
2022/03/02 11:11:09;;;;;;;1.83;1.73;;;13.20;99.90;;;;;;5127827;28;20202;-76
2022/03/02 11:13:36;;;;;;;3.13;2.93;;;13.70;99.90;;;;;;5119751;27;20302;-75
2022/03/02 11:16:04;;;;;;;1.33;1.33;;;14.20;98.90;;;;;;5109418;28;20179;-76
2022/03/02 11:18:50;;;;;;;1.67;1.57;;;14.40;94.10;;;;;;5120758;28;20194;-74
2022/03/02 11:21:19;;;;;;;1.60;1.40;;;14.00;94.20;;;;;;5123897;28;20178;-74
2022/03/02 11:23:50;;;;;;;1.77;1.67;;;14.20;93.70;;;;;;5112322;28;20202;-74
2022/03/02 11:26:23;;;;;;;1.90;1.70;;;13.70;94.10;;;;;;5105319;28;20531;-75
2022/03/02 11:28:57;;;;;;;1.43;1.37;;;13.50;97.40;;;;;;5108293;28;20175;-76
2022/03/02 11:31:30;;;;;;;2.47;0.93;;;13.70;95.60;;;;;;5109310;28;20214;-76
2022/03/02 11:34:19;;;;;;;3.43;2.20;;;14.80;91.90;;;;;;5106687;28;20278;-76
2022/03/02 11:36:48;;;;;;;7.00;2.17;;;15.10;93.70;;;;;;5112651;28;20216;-77
2022/03/02 11:39:15;;;;;;;1.23;1.07;;;14.60;89.10;;;;;;5111591;28;20178;-76
2022/03/02 11:41:43;;;;;;;2.17;2.07;;;15.00;92.30;;;;;;5103592;28;20184;-75
2022/03/02 11:44:26;;;;;;;4.77;1.67;;;15.50;89.20;;;;;;5096644;28;20615;-76
2022/03/02 11:46:52;;;;;;;3.23;3.03;;;15.90;87.50;;;;;;5103449;28;20270;-76
2022/03/02 11:49:18;;;;;;;2.00;1.90;;;16.80;81.50;;;;;;5106503;28;20179;-75
2022/03/02 11:51:43;;;;;;;3.27;2.50;;;16.80;77.50;;;;;;5100805;28;20590;-76
2022/03/02 11:54:10;;;;;;;2.00;1.40;;;15.60;83.00;;;;;;5112020;28;20199;-76
2022/03/02 11:56:37;;;;;;;1.10;0.70;;;16.00;77.50;;;;;;5107840;28;20175;-76
2022/03/02 11:59:08;;;;;;;5.40;2.20;;;16.90;72.90;;;;;;5107100;28;20688;-75
2022/03/02 12:01:47;;;;;;;2.03;1.93;;;17.30;75.10;;;;;;5103586;28;20185;-76
2022/03/02 12:04:16;;;;;;;6.87;2.77;;;16.70;69.70;;;;;;5112692;28;20206;-77
2022/03/02 12:06:51;;;;;;;4.33;1.43;;;16.20;78.30;;;;;;5111679;28;20187;-76
2022/03/02 12:09:23;;;;;;;2.73;2.20;;;15.70;79.90;;;;;;5108147;28;20610;-76
2022/03/02 12:11:48;;;;;;;1.50;1.40;;;15.50;76.30;;;;;;5106017;28;20237;-75
2022/03/02 12:14:15;;;;;;;5.37;2.07;;;16.20;79.30;;;;;;5103783;28;20234;-76
2022/03/02 12:16:43;;;;;;;2.40;2.20;;;16.10;77.90;;;;;;5102792;28;20184;-74
2022/03/02 12:19:26;;;;;;;3.23;2.27;;;16.00;72.30;;;;;;5097701;28;20184;-75
2022/03/02 12:22:05;;;;;;;2.47;1.20;;;17.20;72.30;;;;;;5111721;28;20233;-76
2022/03/02 12:24:33;;;;;;;1.90;1.77;;;16.90;78.10;;;;;;5110091;28;20252;-76
2022/03/02 12:27:07;;;;;;;1.80;1.50;;;16.70;76.40;;;;;;5096815;28;20248;-76
2022/03/02 12:29:38;;;;;;;7.37;3.13;;;17.50;69.40;;;;;;5108322;28;20187;-76
2022/03/02 12:32:16;;;;;;;8.10;1.83;;;17.60;67.60;;;;;;5103060;28;20208;-76
2022/03/02 12:34:50;;;;;;;2.03;1.93;;;18.00;63.80;;;;;;5104096;28;20208;-76
2022/03/02 12:37:17;;;;;;;0.97;0.97;;;18.00;60.10;;;;;;5108871;28;20180;-76
2022/03/02 12:39:43;;;;;;;3.13;2.53;;;18.40;62.60;;;;;;5098024;28;20603;-75
2022/03/02 12:42:10;;;;;;;2.00;1.90;;;18.30;61.80;;;;;;5109631;28;20268;-73
2022/03/02 12:44:39;;;;;;;5.13;2.73;;;19.60;58.90;;;;;;5107913;28;20210;-76
2022/03/02 12:47:08;;;;;;;1.53;1.47;;;20.30;54.90;;;;;;5104488;28;20242;-75
2022/03/02 12:49:36;;;;;;;2.40;1.30;;;20.40;50.80;;;;;;5093454;28;20213;-76
2022/03/02 12:52:03;;;;;;;3.13;2.93;;;21.10;53.10;;;;;;5108482;28;20611;-75
2022/03/02 12:54:31;;;;;;;3.30;1.60;;;20.20;51.60;;;;;;5102163;28;20221;-75
2022/03/02 12:56:57;;;;;;;2.47;2.27;;;19.40;55.70;;;;;;5104342;28;20175;-76
2022/03/02 12:59:23;;;;;;;1.87;1.37;;;19.70;54.60;;;;;;5107255;28;20179;-75
2022/03/02 13:01:48;;;;;;;3.43;2.00;;;20.30;50.80;;;;;;5102517;28;20231;-76